To NAV CANADA Home Page Login to a new session Search on AWWS site Feedback and Comments Disclaimer Vers la page française équivalente Tips FAQ What's new on the site To the Forecasts and Observations / NOTAM section To "File a Flight Plan" website Publications and other links Update of the User's profile FIC Telephone Numbers My Weather Data Folder Route Weather Data Regional Weather Data Local Weather Data To the Forecasts and Observations / NOTAM section
Request Generated 03/23/2017 at 00:16:00 UTC . Weather information available at that time is displayed.

METAR/TAF

HALIFAX/SHEARWATER/NS    

SPECI CYAW 222251Z 16005KT 15SM FEW034 01/00 A2955 RMK SC1 DA-1008FT LAST OBS/NEXT 231100 UTC SLP009=
METAR CYAW 222200Z 19007KT 15SM FEW020 FEW034 05/M01 A2955 RMK CU0SC1 DA-579FT SLP009=
METAR CYAW 222100Z 20006KT 15SM FEW020 FEW034 06/01 A2956 RMK CU0SC1 DA-371FT SLP013=

TAF AMD CYAW 222254Z 2221/2306 FCST CNCLD DUE END OF FLYING PROGRAM
RMK NXT FCST WILL BE ISSUED AT 231215Z=
Your time UTC time
Weather data provided by Environment Canada and NAV CANADA